Latest Coastal Weather Observations for Rosslyn Bay Harbour

IDQ60701

Issued at 12:13 pm EST Thursday 8 December 2022 (issued every 10 minutes, with the page automatically refreshed every 10 minutes)

About coastal observations | Map of coastal stations | Coastal observations for QLD | Marine services | Other Formats
Station Details ID: 033208 Name: ROSSLYN BAY NTC AWS Lat: -23.16 Lon: 150.79 Height: 0.0 m
Data from the previous 72 hours. | See also: Recent months for locations in Queensland
Date/Time
EST
Wind Sea
Height
m
Swell Vis
km
Cloud Weather Temp
°C
Press
MSL
hPa
Rain since
9am
mm
Dir  Spd
kts
Gust
kts
Height
m
Period
s
Dir
08/12:00pm ENE 8 10 - - - - - - - 27.6 1005.8 -
08/11:30am NE 2 6 - - - - - - - 28.6 1006.2 -
08/11:00am ENE 6 9 - - - - - - - 28.3 1006.3 -
08/10:30am ENE 5 7 - - - - - - - 27.6 1006.6 -
08/10:00am SSW 1 3 - - - - - - - 28.4 1007.1 -
08/09:30am ENE 2 5 - - - - - - - 27.7 1007.0 -
08/09:00am ENE 3 6 - - - - - - - 26.8 1007.2 -
08/08:30am S 3 5 - - - - - - - 26.9 1007.2 -
08/08:00am SSE 3 4 - - - - - - - 26.3 1006.9 -
08/07:30am SSE 2 5 - - - - - - - 26.2 1006.8 -
08/07:00am SSW 2 3 - - - - - - - 25.8 1006.8 -
08/06:30am NNW 4 5 - - - - - - - 24.8 1006.2 -
08/06:00am WNW 2 3 - - - - - - - 24.3 1006.0 -
08/05:30am WNW 3 6 - - - - - - - 24.5 1005.6 -
08/05:00am W 3 5 - - - - - - - 23.9 1005.4 -
08/04:30am WNW 5 7 - - - - - - - 24.5 1005.0 -
08/04:00am W 3 6 - - - - - - - 23.9 1005.2 -
08/03:30am W 3 6 - - - - - - - 23.9 1005.0 -
08/03:00am W 4 7 - - - - - - - 24.1 1004.8 -
08/02:30am WNW 4 6 - - - - - - - 24.8 1004.8 -
08/02:00am WNW 4 5 - - - - - - - 24.8 1005.0 -
08/01:30am NW 4 6 - - - - - - - 24.8 1005.2 -
08/01:00am NW 5 7 - - - - - - - 25.1 1005.5 -
08/12:30am NW 6 8 - - - - - - - 25.2 1005.8 -
08/12:00am WNW 4 7 - - - - - - - 25.4 1006.3 -
 
Date/Time
EST
Wind Sea
Height
m
Swell Vis
km
Cloud Weather Temp
°C
Press
MSL
hPa
Rain since
9am
mm
Dir  Spd
kts
Gust
kts
Height
m
Period
s
Dir
07/11:30pm W 5 7 - - - - - - - 25.9 1006.6 -
07/11:00pm WNW 3 5 - - - - - - - 26.2 1007.0 -
07/10:30pm NNW 4 6 - - - - - - - 26.7 1007.2 -
07/10:00pm N 5 7 - - - - - - - 26.9 1007.2 -
07/09:30pm N 5 8 - - - - - - - 27.1 1007.0 -
07/09:00pm NNE 6 8 - - - - - - - 26.9 1007.0 -
07/08:30pm N 5 9 - - - - - - - 27.3 1007.0 -
07/08:00pm N 6 8 - - - - - - - 27.5 1006.8 -
07/07:30pm NNE 8 11 - - - - - - - 27.8 1006.5 -
07/07:00pm NNE 8 11 - - - - - - - 28.1 1006.2 -
07/06:30pm NNE 8 11 - - - - - - - 28.2 1005.9 -
07/06:00pm NNE 10 14 - - - - - - - 29.0 1005.8 -
07/05:30pm NNE 9 13 - - - - - - - 28.3 1005.5 -
07/05:00pm NE 10 14 - - - - - - - 28.0 1005.4 -
07/04:30pm NE 10 15 - - - - - - - 27.9 1005.3 -
07/04:00pm NE 11 16 - - - - - - - 27.8 1005.3 -
07/03:30pm NE 10 16 - - - - - - - 27.6 1005.3 -
07/03:00pm NE 9 14 - - - - - - - 27.5 1005.7 -
07/02:30pm NNE 10 14 - - - - - - - 27.4 1006.1 -
07/02:00pm NNE 10 14 - - - - - - - 27.4 1006.3 -
07/01:30pm NNE 11 14 - - - - - - - 27.3 1006.6 -
07/01:00pm NNE 10 15 - - - - - - - 27.1 1007.1 -
07/12:30pm NE 9 14 - - - - - - - 27.2 1007.4 -
07/12:00pm NE 10 13 - - - - - - - 26.9 1007.9 -
07/11:30am NE 10 13 - - - - - - - 26.8 1008.3 -
07/11:00am NE 10 11 - - - - - - - 26.5 1008.8 -
07/10:30am ENE 8 9 - - - - - - - 26.6 1008.9 -
07/10:00am NE 8 9 - - - - - - - 26.6 1009.0 -
07/09:30am NE 8 9 - - - - - - - 25.8 1009.1 -
07/09:00am NE 7 9 - - - - - - - 25.9 1009.2 -
07/08:30am NNE 4 6 - - - - - - - 26.2 1009.3 -
07/08:00am NNW 5 9 - - - - - - - 26.4 1009.5 -
07/07:30am NNW 3 4 - - - - - - - 25.6 1009.2 -
07/07:00am W 3 4 - - - - - - - 24.6 1009.2 -
07/06:30am WSW 2 4 - - - - - - - 24.0 1009.0 -
07/06:00am W 3 4 - - - - - - - 23.8 1008.9 -
07/05:30am WNW 3 4 - - - - - - - 23.3 1008.4 -
07/05:00am NNW 2 3 - - - - - - - 23.5 1008.1 -
07/04:30am NW 3 4 - - - - - - - 23.6 1007.9 -
07/04:00am NW 4 5 - - - - - - - 23.5 1007.8 -
07/03:30am W 2 4 - - - - - - - 23.6 1007.6 -
07/03:00am NW 3 5 - - - - - - - 23.8 1007.5 -
07/02:30am NW 5 7 - - - - - - - 23.7 1007.4 -
07/02:00am NW 4 7 - - - - - - - 24.0 1007.5 -
07/01:30am WNW 3 5 - - - - - - - 24.1 1007.6 -
07/01:00am W 3 5 - - - - - - - 24.1 1007.7 -
07/12:30am W 3 5 - - - - - - - 24.2 1008.1 -
07/12:00am WNW 3 4 - - - - - - - 24.5 1008.4 -
 
Date/Time
EST
Wind Sea
Height
m
Swell Vis
km
Cloud Weather Temp
°C
Press
MSL
hPa
Rain since
9am
mm
Dir  Spd
kts
Gust
kts
Height
m
Period
s
Dir
06/11:30pm WNW 3 4 - - - - - - - 25.0 1008.4 -
06/11:00pm N 4 6 - - - - - - - 25.5 1008.4 -
06/10:30pm N 6 8 - - - - - - - 25.3 1008.6 -
06/10:00pm NNW 6 7 - - - - - - - 25.7 1008.7 -
06/09:30pm N 7 10 - - - - - - - 26.1 1008.6 -
06/09:00pm N 5 8 - - - - - - - 26.4 1008.4 -
06/08:30pm N 4 6 - - - - - - - 26.5 1008.4 -
06/08:00pm N 7 9 - - - - - - - 27.2 1008.1 -
06/07:30pm NNE 8 11 - - - - - - - 26.9 1007.8 -
06/07:00pm NNE 9 13 - - - - - - - 27.1 1007.4 -
06/06:30pm NNE 12 15 - - - - - - - 27.3 1006.9 -
06/06:00pm NNE 12 15 - - - - - - - 27.4 1006.6 -
06/05:30pm NNE 11 15 - - - - - - - 27.0 1006.2 -
06/05:00pm NNE 11 15 - - - - - - - 27.0 1005.9 -
06/04:30pm NNE 10 13 - - - - - - - 27.1 1005.9 -
06/04:00pm NNE 10 14 - - - - - - - 26.9 1006.0 -
06/03:30pm NNE 10 13 - - - - - - - 26.9 1006.2 -
06/03:00pm NNE 10 15 - - - - - - - 26.9 1006.5 -
06/02:30pm NE 9 13 - - - - - - - 26.9 1006.8 -
06/02:00pm NE 9 14 - - - - - - - 26.9 1007.1 -
06/01:30pm NE 9 14 - - - - - - - 26.8 1007.4 -
06/01:00pm NE 9 14 - - - - - - - 26.7 1007.8 -
06/12:30pm NE 9 14 - - - - - - - 26.5 1008.1 -
06/12:00pm NE 8 12 - - - - - - - 26.6 1008.4 -
06/11:30am NE 9 11 - - - - - - - 26.4 1008.8 -
06/11:00am NE 8 11 - - - - - - - 26.1 1009.2 -
06/10:30am NE 6 8 - - - - - - - 26.4 1009.4 -
06/10:00am N 4 8 - - - - - - - 27.2 1009.7 -
06/09:30am NNW 5 8 - - - - - - - 26.5 1010.0 -
06/09:00am NNW 6 8 - - - - - - - 26.0 1010.1 -
06/08:30am WNW 6 9 - - - - - - - 25.7 1010.3 -
06/08:00am WNW 6 8 - - - - - - - 25.3 1010.3 -
06/07:30am WNW 4 7 - - - - - - - 24.8 1010.1 -
06/07:00am NNW 3 5 - - - - - - - 23.4 1009.8 -
06/06:30am W 2 3 - - - - - - - 22.6 1009.5 -
06/06:00am WNW 2 4 - - - - - - - 22.0 1009.3 -
06/05:30am W 3 4 - - - - - - - 21.6 1009.0 -
06/05:00am WSW 3 6 - - - - - - - 21.6 1008.7 -
06/04:30am WSW 3 5 - - - - - - - 21.5 1008.5 -
06/04:00am WSW 3 5 - - - - - - - 21.4 1008.3 -
06/03:30am W 3 4 - - - - - - - 21.9 1008.2 -
06/03:00am WSW 2 3 - - - - - - - 22.0 1008.1 -
06/02:30am WSW 3 5 - - - - - - - 22.0 1008.1 -
06/02:00am W 3 4 - - - - - - - 22.7 1008.4 -
06/01:30am WNW 1 3 - - - - - - - 23.1 1008.5 -
06/01:00am NNW 5 7 - - - - - - - 23.8 1008.8 -
06/12:30am NNW 6 7 - - - - - - - 23.9 1009.0 -
06/12:00am NNW 5 7 - - - - - - - 23.8 1009.3 -
 
Date/Time
EST
Wind Sea
Height
m
Swell Vis
km
Cloud Weather Temp
°C
Press
MSL
hPa
Rain since
9am
mm
Dir  Spd
kts
Gust
kts
Height
m
Period
s
Dir
05/11:30pm N 5 8 - - - - - - - 23.9 1009.5 -
05/11:00pm N 6 9 - - - - - - - 23.8 1009.8 -
05/10:30pm N 5 7 - - - - - - - 24.1 1009.9 -
05/10:00pm N 6 9 - - - - - - - 24.3 1010.0 -
05/09:30pm NNE 9 13 - - - - - - - 24.9 1009.9 -
05/09:00pm NNE 10 13 - - - - - - - 24.9 1009.6 -
05/08:30pm NNE 10 13 - - - - - - - 24.9 1009.4 -
05/08:00pm NNE 9 13 - - - - - - - 25.0 1009.2 -
05/07:30pm NNE 9 12 - - - - - - - 24.9 1008.9 -
05/07:00pm NNE 8 12 - - - - - - - 24.9 1008.7 -
05/06:30pm NNE 8 11 - - - - - - - 24.9 1008.5 -
05/06:00pm NNE 6 9 - - - - - - - 25.0 1008.0 -
05/05:30pm NNE 7 9 - - - - - - - 24.9 1007.5 -
05/05:00pm NNE 8 11 - - - - - - - 24.9 1007.3 -
05/04:30pm NNE 8 11 - - - - - - - 24.9 1007.1 -
05/04:00pm NNE 8 12 - - - - - - - 24.9 1006.9 -
05/03:30pm NE 10 11 - - - - - - - 24.7 1007.2 -
05/03:00pm ENE 10 14 - - - - - - - 24.6 1007.4 -
05/02:30pm NE 10 12 - - - - - - - 24.5 1007.6 -
05/02:00pm ENE 9 12 - - - - - - - 24.9 1007.7 -
05/01:30pm NE 8 9 - - - - - - - 24.4 1008.2 -
05/01:00pm ENE 7 10 - - - - - - - 24.9 1008.5 -
05/12:30pm NE 3 9 - - - - - - - 24.8 1008.9 -

Other formats

Comma delimited format used in spreadsheet applications
http://www.bom.gov.au/fwo/IDQ60701/IDQ60701.95298.axf

JavaScript Object Notation format (JSON) in row-major order
http://www.bom.gov.au/fwo/IDQ60701/IDQ60701.95298.json

Data quality

Most of these data are generated automatically and are frequently updated. Quality checks on data are not normally performed. It is possible for incorrect values to appear. Refer to information at About Latest Weather Observations and please check the disclaimer before using these data.